createdAt,value
2023-04-13T00:00:48.017Z,1557.00
2023-04-13T00:01:48.154Z,1528.00
2023-04-13T00:02:48.184Z,1536.00
2023-04-13T00:03:48.267Z,1545.00
2023-04-13T00:04:49.176Z,1548.00
2023-04-13T00:05:49.342Z,1551.00
2023-04-13T00:06:49.276Z,1545.00
2023-04-13T00:07:49.362Z,1542.00
2023-04-13T00:08:49.398Z,1535.00
2023-04-13T00:09:49.474Z,1539.00
2023-04-13T00:10:49.535Z,1531.00
2023-04-13T00:11:49.556Z,1539.00
2023-04-13T00:12:49.616Z,1547.00
2023-04-13T00:13:48.669Z,1543.00
2023-04-13T00:14:49.887Z,1537.00
2023-04-13T00:15:48.798Z,1537.00
2023-04-13T00:16:48.901Z,1541.00
2023-04-13T00:17:49.915Z,1536.00
2023-04-13T00:18:49.924Z,1524.00
2023-04-13T00:19:49.983Z,1520.00
2023-04-13T00:20:50.067Z,1528.00
2023-04-13T00:21:50.114Z,1526.00
2023-04-13T00:22:50.166Z,1535.00
2023-04-13T00:23:50.221Z,1520.00
2023-04-13T00:24:49.291Z,1523.00
2023-04-13T00:25:50.379Z,1516.00
2023-04-13T00:26:49.420Z,1519.00
2023-04-13T00:27:50.456Z,1508.00
2023-04-13T00:28:49.519Z,1521.00
2023-04-13T00:29:50.582Z,1526.00
2023-04-13T00:30:50.693Z,1516.00
2023-04-13T00:31:50.721Z,1519.00
2023-04-13T00:32:50.813Z,1509.00
2023-04-13T00:33:49.833Z,1509.00
2023-04-13T00:34:49.899Z,1510.00
2023-04-13T00:35:49.938Z,1518.00
2023-04-13T00:36:51.019Z,1522.00
2023-04-13T00:37:51.085Z,1496.00
2023-04-13T00:38:50.148Z,1512.00
2023-04-13T00:39:50.208Z,1508.00
2023-04-13T00:40:51.257Z,1510.00
2023-04-13T00:41:50.312Z,1498.00
2023-04-13T00:42:51.408Z,1498.00
2023-04-13T00:43:51.454Z,1507.00
2023-04-13T00:44:50.490Z,1497.00
2023-04-13T00:45:51.617Z,1507.00
2023-04-13T00:46:51.617Z,1501.00
2023-04-13T00:47:51.750Z,1498.00
2023-04-13T00:48:51.743Z,1497.00
2023-04-13T00:49:51.802Z,1490.00
2023-04-13T00:50:51.887Z,1487.00
2023-04-13T00:51:51.932Z,1485.00
2023-04-13T00:52:52.004Z,1491.00
2023-04-13T00:53:52.055Z,1490.00
2023-04-13T00:54:51.121Z,1496.00
2023-04-13T00:55:51.171Z,1513.00
2023-04-13T00:56:52.229Z,1488.00
2023-04-13T00:57:51.292Z,1490.00
2023-04-13T00:58:51.389Z,1485.00
2023-04-13T00:59:51.435Z,1473.00
2023-04-13T01:00:51.515Z,1483.00
2023-04-13T01:01:52.641Z,1478.00
2023-04-13T01:02:52.735Z,1474.00
2023-04-13T01:03:51.666Z,1481.00
2023-04-13T01:04:51.902Z,1488.00
2023-04-13T01:05:52.804Z,1482.00
2023-04-13T01:06:51.885Z,1461.00
2023-04-13T01:07:52.941Z,1473.00
2023-04-13T01:08:52.996Z,1470.00
2023-04-13T01:09:53.057Z,1482.00
2023-04-13T01:10:52.124Z,1464.00
2023-04-13T01:11:53.182Z,1463.00
2023-04-13T01:12:53.250Z,1476.00
2023-04-13T01:13:53.322Z,1473.00
2023-04-13T01:14:52.382Z,1471.00
2023-04-13T01:15:53.474Z,1466.00
2023-04-13T01:16:52.488Z,1458.00
2023-04-13T01:17:52.633Z,1461.00
2023-04-13T01:18:53.611Z,1459.00
2023-04-13T01:19:52.704Z,1475.00
2023-04-13T01:20:53.730Z,1471.00
2023-04-13T01:21:52.802Z,1471.00
2023-04-13T01:22:54.043Z,1463.00
2023-04-13T01:23:52.922Z,1455.00
2023-04-13T01:24:53.986Z,1449.00
2023-04-13T01:25:54.037Z,1465.00
2023-04-13T01:26:53.101Z,1464.00
2023-04-13T01:27:54.169Z,1456.00
2023-04-13T01:28:53.194Z,1450.00
2023-04-13T01:29:53.234Z,1460.00
2023-04-13T01:30:53.304Z,1454.00
2023-04-13T01:31:54.406Z,1444.00
2023-04-13T01:32:54.408Z,1450.00
2023-04-13T01:33:54.458Z,1448.00
2023-04-13T01:34:54.506Z,1436.00
2023-04-13T01:35:54.583Z,1447.00
2023-04-13T01:36:54.657Z,1429.00
2023-04-13T01:37:54.701Z,1436.00
2023-04-13T01:38:54.757Z,1454.00
2023-04-13T01:39:54.821Z,1468.00
2023-04-13T01:40:53.896Z,1466.00
2023-04-13T01:41:54.945Z,1480.00
2023-04-13T01:42:55.025Z,1508.00
2023-04-13T01:43:54.079Z,1526.00
2023-04-13T01:44:55.114Z,1540.00
2023-04-13T01:45:55.176Z,1516.00
2023-04-13T01:46:55.323Z,1529.00
2023-04-13T01:47:55.351Z,1548.00
2023-04-13T01:48:55.345Z,1552.00
2023-04-13T01:49:55.384Z,1550.00
2023-04-13T01:50:54.444Z,1532.00
2023-04-13T01:51:54.496Z,1533.00
2023-04-13T01:52:54.523Z,1508.00
2023-04-13T01:53:54.560Z,1526.00
2023-04-13T01:54:55.583Z,1511.00
2023-04-13T01:55:55.630Z,1494.00
2023-04-13T01:56:55.704Z,1475.00
2023-04-13T01:57:55.706Z,1476.00
2023-04-13T01:58:55.719Z,1482.00
2023-04-13T01:59:54.750Z,1452.00
2023-04-13T02:00:55.816Z,1439.00
2023-04-13T02:01:54.873Z,1426.00
2023-04-13T02:02:56.020Z,1414.00
2023-04-13T02:03:54.990Z,1407.00
2023-04-13T02:04:55.888Z,1391.00
2023-04-13T02:05:55.924Z,1376.00
2023-04-13T02:06:55.942Z,1370.00
2023-04-13T02:07:55.985Z,1362.00
2023-04-13T02:08:55.015Z,1356.00
2023-04-13T02:09:56.006Z,1352.00
2023-04-13T02:10:55.017Z,1350.00
2023-04-13T02:11:55.035Z,1347.00
2023-04-13T02:12:55.039Z,1345.00
2023-04-13T02:13:56.180Z,1335.00
2023-04-13T02:14:56.064Z,1327.00
2023-04-13T02:15:55.099Z,1319.00
2023-04-13T02:16:56.081Z,1325.00
2023-04-13T02:17:56.188Z,1332.00
2023-04-13T02:18:56.125Z,1321.00
2023-04-13T02:19:55.112Z,1325.00
2023-04-13T02:20:56.106Z,1311.00
2023-04-13T02:21:55.115Z,1316.00
2023-04-13T02:22:56.096Z,1293.00
2023-04-13T02:23:56.218Z,1306.00
2023-04-13T02:24:55.075Z,1290.00
2023-04-13T02:25:56.072Z,1292.00
2023-04-13T02:26:55.071Z,1291.00
2023-04-13T02:27:56.071Z,1277.00
2023-04-13T02:28:56.052Z,1281.00
2023-04-13T02:29:55.056Z,1280.00
2023-04-13T02:30:56.046Z,1279.00
2023-04-13T02:31:56.080Z,1281.00
2023-04-13T02:32:56.090Z,1283.00
2023-04-13T02:33:56.136Z,1273.00
2023-04-13T02:34:56.134Z,1270.00
2023-04-13T02:35:55.150Z,1259.00
2023-04-13T02:36:55.173Z,1261.00
2023-04-13T02:37:56.194Z,1250.00
2023-04-13T02:38:56.159Z,1264.00
2023-04-13T02:39:55.172Z,1267.00
2023-04-13T02:40:55.158Z,1246.00
2023-04-13T02:41:56.146Z,1238.00
2023-04-13T02:42:56.171Z,1234.00
2023-04-13T02:43:56.279Z,1233.00
2023-04-13T02:44:55.163Z,1241.00
2023-04-13T02:45:56.244Z,1236.00
2023-04-13T02:46:56.161Z,1236.00
2023-04-13T02:47:56.173Z,1229.00
2023-04-13T02:48:55.143Z,1228.00
2023-04-13T02:49:56.150Z,1245.00
2023-04-13T02:50:56.164Z,1237.00
2023-04-13T02:51:55.154Z,1219.00
2023-04-13T02:52:56.148Z,1225.00
2023-04-13T02:53:57.814Z,1216.00
2023-04-13T02:54:56.128Z,1230.00
2023-04-13T02:55:55.122Z,1237.00
2023-04-13T02:56:55.118Z,1234.00
2023-04-13T02:57:56.114Z,1216.00
2023-04-13T02:58:55.128Z,1222.00
2023-04-13T02:59:56.118Z,1209.00
2023-04-13T03:00:55.111Z,1211.00
2023-04-13T03:01:55.096Z,1201.00
2023-04-13T03:02:56.139Z,1214.00
2023-04-13T03:03:55.076Z,1198.00
2023-04-13T03:04:56.136Z,1201.00
2023-04-13T03:05:55.066Z,1212.00
2023-04-13T03:06:56.093Z,1191.00
2023-04-13T03:07:55.093Z,1193.00
2023-04-13T03:08:55.086Z,1199.00
2023-04-13T03:09:56.104Z,1199.00
2023-04-13T03:10:56.021Z,1200.00
2023-04-13T03:11:55.007Z,1185.00
2023-04-13T03:12:56.036Z,1188.00
2023-04-13T03:13:54.995Z,1184.00
2023-04-13T03:14:54.983Z,1181.00
2023-04-13T03:15:55.974Z,1175.00
2023-04-13T03:16:56.035Z,1169.00
2023-04-13T03:17:56.008Z,1193.00
2023-04-13T03:18:54.967Z,1169.00
2023-04-13T03:19:55.968Z,1168.00
2023-04-13T03:20:55.953Z,1176.00
2023-04-13T03:21:54.959Z,1174.00
2023-04-13T03:22:55.959Z,1175.00
2023-04-13T03:23:54.944Z,1156.00
2023-04-13T03:24:55.928Z,1182.00
2023-04-13T03:25:54.924Z,1166.00
2023-04-13T03:26:54.918Z,1151.00
2023-04-13T03:27:54.914Z,1165.00
2023-04-13T03:28:55.911Z,1159.00
2023-04-13T03:29:55.913Z,1154.00
2023-04-13T03:30:55.935Z,1159.00
2023-04-13T03:31:55.871Z,1168.00
2023-04-13T03:32:54.962Z,1157.00
2023-04-13T03:33:55.014Z,1169.00
2023-04-13T03:34:56.070Z,1159.00
2023-04-13T03:35:56.130Z,1157.00
2023-04-13T03:36:56.180Z,1147.00
2023-04-13T03:37:56.243Z,1137.00
2023-04-13T03:38:56.332Z,1140.00
2023-04-13T03:39:56.363Z,1130.00
2023-04-13T03:40:56.426Z,1129.00
2023-04-13T03:41:55.490Z,1143.00
2023-04-13T03:42:56.560Z,1124.00
2023-04-13T03:43:56.925Z,1127.00
2023-04-13T03:44:56.666Z,1139.00
2023-04-13T03:45:55.760Z,1132.00
2023-04-13T03:46:56.791Z,1128.00
2023-04-13T03:47:55.861Z,1128.00
2023-04-13T03:48:56.932Z,1126.00
2023-04-13T03:49:56.986Z,1135.00
2023-04-13T03:50:57.044Z,1124.00
2023-04-13T03:51:56.100Z,1119.00
2023-04-13T03:52:57.172Z,1125.00
2023-04-13T03:53:57.384Z,1117.00
2023-04-13T03:54:57.346Z,1121.00
2023-04-13T03:55:56.349Z,1110.00
2023-04-13T03:56:57.412Z,1125.00
2023-04-13T03:57:57.479Z,1111.00
2023-04-13T03:58:57.588Z,1095.00
2023-04-13T03:59:57.670Z,1110.00
2023-04-13T04:00:57.677Z,1111.00
2023-04-13T04:01:57.761Z,1101.00
2023-04-13T04:02:57.859Z,1108.00
2023-04-13T04:03:58.596Z,1099.00
2023-04-13T04:04:57.950Z,1106.00
2023-04-13T04:05:57.977Z,1094.00
2023-04-13T04:06:57.020Z,1112.00
2023-04-13T04:07:58.067Z,1099.00
2023-04-13T04:08:58.124Z,1095.00
2023-04-13T04:09:58.175Z,1095.00
2023-04-13T04:10:58.297Z,1098.00
2023-04-13T04:11:57.286Z,1091.00
2023-04-13T04:12:58.346Z,1097.00
2023-04-13T04:13:57.661Z,1088.00
2023-04-13T04:14:58.408Z,1093.00
2023-04-13T04:15:58.527Z,1086.00
2023-04-13T04:16:58.530Z,1090.00
2023-04-13T04:17:58.602Z,1095.00
2023-04-13T04:18:57.605Z,1087.00
2023-04-13T04:19:58.670Z,1092.00
2023-04-13T04:20:58.709Z,1082.00
2023-04-13T04:21:57.794Z,1091.00
2023-04-13T04:22:58.782Z,1076.00
2023-04-13T04:23:58.944Z,1083.00
2023-04-13T04:24:57.880Z,1094.00
2023-04-13T04:25:58.925Z,1093.00
2023-04-13T04:26:58.969Z,1083.00
2023-04-13T04:27:58.999Z,1079.00
2023-04-13T04:28:59.052Z,1084.00
2023-04-13T04:29:58.059Z,1085.00
2023-04-13T04:30:59.072Z,1093.00
2023-04-13T04:31:59.139Z,1088.00
2023-04-13T04:32:59.214Z,1086.00
2023-04-13T04:33:58.393Z,1088.00
2023-04-13T04:34:58.217Z,1100.00
2023-04-13T04:35:59.236Z,1086.00
2023-04-13T04:37:02.895Z,1130.00
2023-04-13T04:37:59.245Z,1130.00
2023-04-13T04:38:59.259Z,1113.00
2023-04-13T04:39:58.243Z,1112.00
2023-04-13T04:40:59.247Z,1095.00
2023-04-13T04:41:59.218Z,1077.00
2023-04-13T04:42:59.242Z,1087.00
2023-04-13T04:43:59.356Z,1080.00
2023-04-13T04:44:59.190Z,1070.00
2023-04-13T04:45:58.273Z,1084.00
2023-04-13T04:46:59.181Z,1073.00
2023-04-13T04:47:58.200Z,1075.00
2023-04-13T04:48:58.177Z,1075.00
2023-04-13T04:49:59.156Z,1066.00
2023-04-13T04:50:58.231Z,1057.00
2023-04-13T04:51:59.208Z,1050.00
2023-04-13T04:52:59.248Z,1048.00
2023-04-13T04:53:58.683Z,1047.00
2023-04-13T04:54:59.317Z,1055.00
2023-04-13T04:55:59.351Z,1060.00
2023-04-13T04:56:59.390Z,1057.00
2023-04-13T04:57:59.456Z,1058.00
2023-04-13T04:58:58.766Z,1055.00
2023-04-13T04:59:59.508Z,1058.00
2023-04-13T05:00:59.554Z,1048.00
2023-04-13T05:01:59.658Z,1045.00
2023-04-13T05:02:58.727Z,1045.00
2023-04-13T05:03:59.701Z,1047.00
2023-04-13T05:04:58.876Z,1038.00
2023-04-13T05:05:59.831Z,1049.00
2023-04-13T05:06:59.906Z,1038.00
2023-04-13T05:07:58.957Z,1029.00
2023-04-13T05:09:00.327Z,1031.00
2023-04-13T05:10:00.136Z,1028.00
2023-04-13T05:10:59.147Z,1037.00
2023-04-13T05:11:59.225Z,1025.00
2023-04-13T05:13:00.284Z,1032.00
2023-04-13T05:14:00.426Z,1029.00
2023-04-13T05:14:59.394Z,1030.00
2023-04-13T05:16:00.505Z,1024.00
2023-04-13T05:17:00.540Z,1017.00
2023-04-13T05:17:59.657Z,1039.00
2023-04-13T05:18:59.865Z,1023.00
2023-04-13T05:19:59.743Z,1028.00
2023-04-13T05:20:59.765Z,1034.00
2023-04-13T05:21:59.825Z,1019.00
2023-04-13T05:23:00.919Z,1015.00
2023-04-13T05:23:59.976Z,1024.00
2023-04-13T05:25:01.052Z,1018.00
2023-04-13T05:26:01.090Z,1015.00
2023-04-13T05:27:01.189Z,1022.00
2023-04-13T05:28:01.254Z,1017.00
2023-04-13T05:29:00.634Z,1007.00
2023-04-13T05:30:01.392Z,1025.00
2023-04-13T05:31:01.465Z,1024.00
2023-04-13T05:32:01.572Z,1051.00
2023-04-13T05:33:01.564Z,1110.00
2023-04-13T05:34:00.597Z,1154.00
2023-04-13T05:35:02.119Z,1129.00
2023-04-13T05:36:01.697Z,1089.00
2023-04-13T05:37:01.771Z,1106.00
2023-04-13T05:38:01.805Z,1123.00
2023-04-13T05:39:01.008Z,1140.00
2023-04-13T05:40:01.956Z,1128.00
2023-04-13T05:41:00.956Z,1119.00
2023-04-13T05:42:02.017Z,1117.00
2023-04-13T05:43:01.050Z,1195.00
2023-04-13T05:44:02.112Z,1188.00
2023-04-13T05:45:01.155Z,1160.00
2023-04-13T05:46:02.418Z,1138.00
2023-04-13T05:47:02.324Z,1148.00
2023-04-13T05:48:01.306Z,1186.00
2023-04-13T05:49:01.409Z,827.00
2023-04-13T05:50:02.368Z,629.00
2023-04-13T05:51:02.370Z,540.00
2023-04-13T05:52:02.391Z,502.00
2023-04-13T05:53:02.471Z,500.00
2023-04-13T05:54:02.565Z,546.00
2023-04-13T05:55:02.552Z,610.00
2023-04-13T05:56:02.563Z,614.00
2023-04-13T05:57:02.622Z,623.00
2023-04-13T05:58:01.605Z,634.00
2023-04-13T05:59:01.744Z,634.00
2023-04-13T06:00:03.123Z,567.00
2023-04-13T06:01:01.914Z,525.00
2023-04-13T06:02:01.902Z,554.00
2023-04-13T06:03:03.073Z,624.00
2023-04-13T06:04:02.897Z,785.00
2023-04-13T06:05:01.911Z,901.00
2023-04-13T06:06:02.812Z,858.00
2023-04-13T06:07:01.861Z,916.00
2023-04-13T06:08:01.891Z,893.00
2023-04-13T06:09:02.904Z,872.00
2023-04-13T06:10:02.031Z,953.00
2023-04-13T06:11:03.026Z,1003.00
2023-04-13T06:12:03.022Z,1027.00
2023-04-13T06:13:02.026Z,1110.00
2023-04-13T06:14:03.108Z,1183.00
2023-04-13T06:15:03.126Z,1205.00
2023-04-13T06:16:02.164Z,1255.00
2023-04-13T06:17:03.327Z,1289.00
2023-04-13T06:18:02.300Z,1342.00
2023-04-13T06:19:03.204Z,1370.00
2023-04-13T06:20:02.253Z,1443.00
2023-04-13T06:21:03.323Z,1464.00
2023-04-13T06:22:03.225Z,1515.00
2023-04-13T06:23:03.252Z,1535.00
2023-04-13T06:24:02.256Z,1554.00
2023-04-13T06:25:02.286Z,1611.00
2023-04-13T06:26:05.033Z,1628.00
2023-04-13T06:27:03.316Z,1661.00
2023-04-13T06:28:02.305Z,1686.00
2023-04-13T06:29:03.339Z,1699.00
2023-04-13T06:30:02.302Z,1751.00
2023-04-13T06:31:02.327Z,1775.00
2023-04-13T06:32:02.303Z,1813.00
2023-04-13T06:33:02.287Z,1845.00
2023-04-13T06:34:03.242Z,1833.00
2023-04-13T06:35:03.297Z,1838.00
2023-04-13T06:36:03.201Z,1867.00
2023-04-13T06:37:03.206Z,1890.00
2023-04-13T06:38:03.207Z,1932.00
2023-04-13T06:39:03.201Z,1974.00
2023-04-13T06:40:02.269Z,1959.00
2023-04-13T06:41:02.168Z,1976.00
2023-04-13T06:42:02.156Z,2016.00
2023-04-13T06:43:02.146Z,2065.00
2023-04-13T06:44:02.127Z,2103.00
2023-04-13T06:45:02.116Z,2109.00
2023-04-13T06:46:03.261Z,2150.00
2023-04-13T06:47:03.130Z,2157.00
2023-04-13T06:48:03.198Z,2216.00
2023-04-13T06:49:02.231Z,2228.00
2023-04-13T06:50:03.316Z,2226.00
2023-04-13T06:51:02.087Z,2232.00
2023-04-13T06:52:02.091Z,2242.00
2023-04-13T06:53:03.098Z,2239.00
2023-04-13T06:54:03.138Z,2277.00
2023-04-13T06:55:02.300Z,2284.00
2023-04-13T06:56:03.258Z,2315.00
2023-04-13T06:57:03.337Z,2352.00
2023-04-13T06:58:02.367Z,2341.00
2023-04-13T06:59:03.013Z,2348.00
2023-04-13T07:00:03.500Z,2352.00
2023-04-13T07:01:03.737Z,2372.00
2023-04-13T07:02:02.725Z,2350.00
2023-04-13T07:03:03.838Z,2371.00
2023-04-13T07:04:02.861Z,2390.00
2023-04-13T07:05:03.677Z,2389.00
2023-04-13T07:06:03.739Z,2388.00
2023-04-13T07:07:02.687Z,2416.00
2023-04-13T07:08:02.778Z,2469.00
2023-04-13T07:09:03.757Z,2489.00
2023-04-13T07:10:03.911Z,2465.00
2023-04-13T07:11:03.850Z,2453.00
2023-04-13T07:12:03.891Z,2444.00
2023-04-13T07:13:02.946Z,2441.00
2023-04-13T07:14:03.982Z,2465.00
2023-04-13T07:15:04.000Z,2474.00
2023-04-13T07:16:04.202Z,2504.00
2023-04-13T07:17:03.071Z,2505.00
2023-04-13T07:18:03.199Z,2518.00
2023-04-13T07:19:03.119Z,2526.00
2023-04-13T07:20:03.120Z,2548.00
2023-04-13T07:21:03.201Z,2537.00
2023-04-13T07:22:04.169Z,2576.00
2023-04-13T07:23:03.181Z,2593.00
2023-04-13T07:24:03.252Z,2584.00
2023-04-13T07:25:04.223Z,2597.00
2023-04-13T07:26:03.230Z,2610.00
2023-04-13T07:27:04.230Z,2603.00
2023-04-13T07:28:03.243Z,2638.00
2023-04-13T07:29:04.239Z,2648.00
2023-04-13T07:30:04.285Z,2661.00
2023-04-13T07:31:03.318Z,2638.00
2023-04-13T07:32:04.279Z,2654.00
2023-04-13T07:33:04.355Z,2671.00
2023-04-13T07:34:03.308Z,2655.00
2023-04-13T07:35:04.322Z,2654.00
2023-04-13T07:36:04.346Z,2665.00
2023-04-13T07:37:03.324Z,2699.00
2023-04-13T07:38:03.376Z,2701.00
2023-04-13T07:39:04.347Z,2704.00
2023-04-13T07:40:03.373Z,2719.00
2023-04-13T07:41:03.394Z,2754.00
2023-04-13T07:42:04.383Z,2778.00
2023-04-13T07:43:04.397Z,2774.00
2023-04-13T07:44:04.413Z,2785.00
2023-04-13T07:45:04.396Z,2792.00
2023-04-13T07:46:04.426Z,2819.00
2023-04-13T07:47:04.490Z,2834.00
2023-04-13T07:48:05.166Z,2817.00
2023-04-13T07:49:03.502Z,2835.00
2023-04-13T07:50:04.529Z,2848.00
2023-04-13T07:51:03.618Z,2689.00
2023-04-13T07:52:04.657Z,2380.00
2023-04-13T07:53:03.683Z,2095.00
2023-04-13T07:54:03.687Z,1796.00
2023-04-13T07:55:04.763Z,1655.00
2023-04-13T07:56:03.759Z,1359.00
2023-04-13T07:57:03.733Z,1087.00
2023-04-13T07:58:04.776Z,935.00
2023-04-13T07:59:04.826Z,870.00
2023-04-13T08:00:04.895Z,781.00
2023-04-13T08:01:04.935Z,740.00
2023-04-13T08:02:04.036Z,632.00
2023-04-13T08:03:05.133Z,619.00
2023-04-13T08:04:05.292Z,563.00
2023-04-13T08:05:04.259Z,517.00
2023-04-13T08:06:05.152Z,506.00
2023-04-13T08:07:04.135Z,507.00
2023-04-13T08:08:05.152Z,499.00
2023-04-13T08:09:06.143Z,501.00
2023-04-13T08:10:05.158Z,564.00
2023-04-13T08:11:04.255Z,669.00
2023-04-13T08:12:05.293Z,1044.00
2023-04-13T08:13:04.270Z,1136.00
2023-04-13T08:14:05.289Z,1278.00
2023-04-13T08:15:05.390Z,1350.00
2023-04-13T08:16:05.448Z,1327.00
2023-04-13T08:17:05.655Z,1333.00
2023-04-13T08:18:05.608Z,1338.00
2023-04-13T08:19:05.550Z,1296.00
2023-04-13T08:20:04.517Z,1332.00
2023-04-13T08:21:05.561Z,1353.00
2023-04-13T08:22:05.539Z,1370.00
2023-04-13T08:23:04.550Z,1381.00
2023-04-13T08:24:04.577Z,1390.00
2023-04-13T08:25:05.623Z,1373.00
2023-04-13T08:26:04.621Z,1401.00
2023-04-13T08:27:05.656Z,1422.00
2023-04-13T08:28:05.692Z,1383.00
2023-04-13T08:29:05.721Z,1393.00
2023-04-13T08:30:05.714Z,1453.00
2023-04-13T08:31:05.717Z,1466.00
2023-04-13T08:32:06.213Z,1469.00
2023-04-13T08:33:05.830Z,1524.00
2023-04-13T08:34:05.844Z,1564.00
2023-04-13T08:35:04.880Z,1571.00
2023-04-13T08:36:05.960Z,1608.00
2023-04-13T08:37:06.008Z,1630.00
2023-04-13T08:38:06.062Z,1613.00
2023-04-13T08:39:06.100Z,1615.00
2023-04-13T08:40:06.370Z,1641.00
2023-04-13T08:41:05.428Z,1509.00
2023-04-13T08:42:05.645Z,1348.00
2023-04-13T08:43:06.239Z,1386.00
2023-04-13T08:44:05.248Z,1348.00
2023-04-13T08:45:06.264Z,1272.00
2023-04-13T08:46:05.322Z,1104.00
2023-04-13T08:47:06.365Z,1143.00
2023-04-13T08:48:06.434Z,1042.00
2023-04-13T08:49:06.678Z,1109.00
2023-04-13T08:50:06.506Z,1009.00
2023-04-13T08:51:06.572Z,1115.00
2023-04-13T08:52:06.697Z,1058.00
2023-04-13T08:53:06.687Z,891.00
2023-04-13T08:54:06.689Z,927.00
2023-04-13T08:55:06.939Z,830.00
2023-04-13T08:56:06.768Z,671.00
2023-04-13T08:57:06.153Z,572.00
2023-04-13T08:58:05.761Z,601.00
2023-04-13T08:59:06.786Z,612.00
2023-04-13T09:00:06.786Z,700.00
2023-04-13T09:01:06.854Z,718.00
2023-04-13T09:02:06.938Z,886.00
2023-04-13T09:03:09.533Z,944.00
2023-04-13T09:04:07.166Z,946.00
2023-04-13T09:05:07.113Z,945.00
2023-04-13T09:06:06.865Z,951.00
2023-04-13T09:07:05.867Z,953.00
2023-04-13T09:08:06.861Z,984.00
2023-04-13T09:09:05.865Z,924.00
2023-04-13T09:10:06.828Z,893.00
2023-04-13T09:11:05.820Z,911.00
2023-04-13T09:12:06.812Z,847.00
2023-04-13T09:13:06.836Z,822.00
2023-04-13T09:14:06.822Z,794.00
2023-04-13T09:15:06.814Z,810.00
2023-04-13T09:16:06.187Z,783.00
2023-04-13T09:17:07.486Z,820.00
2023-04-13T09:18:06.835Z,795.00
2023-04-13T09:19:06.848Z,741.00
2023-04-13T09:20:05.820Z,761.00
2023-04-13T09:21:05.761Z,735.00
2023-04-13T09:22:06.765Z,719.00
2023-04-13T09:23:06.760Z,656.00
2023-04-13T09:24:06.902Z,651.00
2023-04-13T09:25:06.726Z,631.00
2023-04-13T09:26:05.722Z,643.00
2023-04-13T09:27:06.710Z,635.00
2023-04-13T09:28:05.761Z,632.00
2023-04-13T09:29:06.839Z,604.00
2023-04-13T09:30:06.713Z,595.00
2023-04-13T09:31:06.852Z,593.00
2023-04-13T09:32:06.950Z,579.00
2023-04-13T09:33:05.934Z,565.00
2023-04-13T09:34:05.900Z,597.00
2023-04-13T09:35:06.975Z,607.00
2023-04-13T09:36:07.019Z,566.00
2023-04-13T09:37:06.091Z,580.00
2023-04-13T09:38:06.107Z,581.00
2023-04-13T09:39:06.174Z,574.00
2023-04-13T09:40:07.216Z,556.00
2023-04-13T09:41:07.288Z,543.00
2023-04-13T09:42:07.337Z,531.00
2023-04-13T09:43:07.418Z,570.00
2023-04-13T09:44:06.438Z,553.00
2023-04-13T09:45:07.549Z,552.00
2023-04-13T09:46:06.631Z,536.00
2023-04-13T09:47:07.757Z,526.00
2023-04-13T09:48:07.628Z,514.00
2023-04-13T09:49:07.617Z,501.00
2023-04-13T09:50:07.602Z,518.00
2023-04-13T09:51:06.609Z,532.00
2023-04-13T09:52:07.749Z,603.00
2023-04-13T09:53:07.675Z,641.00
2023-04-13T09:54:06.745Z,652.00
2023-04-13T09:55:07.822Z,668.00
2023-04-13T09:56:07.824Z,664.00
2023-04-13T09:57:07.166Z,660.00
2023-04-13T09:58:07.931Z,697.00
2023-04-13T09:59:07.032Z,736.00
2023-04-13T10:00:08.074Z,793.00
2023-04-13T10:01:07.132Z,906.00
2023-04-13T10:02:07.168Z,897.00
2023-04-13T10:03:08.183Z,982.00
2023-04-13T10:04:07.179Z,940.00
2023-04-13T10:05:07.185Z,962.00
2023-04-13T10:06:07.187Z,1007.00
2023-04-13T10:07:08.211Z,1003.00
2023-04-13T10:08:07.220Z,1011.00
2023-04-13T10:09:07.222Z,1072.00
2023-04-13T10:10:08.206Z,1107.00
2023-04-13T10:11:08.205Z,1151.00
2023-04-13T10:12:07.240Z,1176.00
2023-04-13T10:13:08.209Z,1182.00
2023-04-13T10:14:08.196Z,1161.00
2023-04-13T10:15:08.206Z,1173.00
2023-04-13T10:16:08.228Z,1214.00
2023-04-13T10:17:07.282Z,1217.00
2023-04-13T10:18:07.342Z,1252.00
2023-04-13T10:19:08.232Z,1244.00
2023-04-13T10:20:08.265Z,1244.00
2023-04-13T10:21:08.270Z,1233.00
2023-04-13T10:22:09.484Z,1313.00
2023-04-13T10:23:08.282Z,1323.00
2023-04-13T10:25:07.269Z,1339.00
2023-04-13T10:26:07.250Z,1344.00
2023-04-13T10:27:08.244Z,1354.00
2023-04-13T10:28:08.276Z,1387.00
2023-04-13T10:29:07.245Z,1391.00
2023-04-13T10:30:08.208Z,1420.00
2023-04-13T10:31:08.262Z,1434.00
2023-04-13T10:32:08.237Z,1428.00
2023-04-13T10:33:08.317Z,1434.00
2023-04-13T10:34:08.196Z,1453.00
2023-04-13T10:35:07.173Z,1482.00
2023-04-13T10:36:08.206Z,1472.00
2023-04-13T10:37:07.173Z,1483.00
2023-04-13T10:38:08.147Z,1506.00
2023-04-13T10:39:07.143Z,1468.00
2023-04-13T10:40:08.135Z,1458.00
2023-04-13T10:41:08.317Z,1453.00
2023-04-13T10:42:08.229Z,1489.00
2023-04-13T10:43:07.116Z,1478.00
2023-04-13T10:44:07.134Z,1292.00
2023-04-13T10:45:07.121Z,1044.00
2023-04-13T10:46:08.099Z,967.00
2023-04-13T10:47:08.293Z,819.00
2023-04-13T10:48:08.141Z,830.00
2023-04-13T10:49:07.183Z,874.00
2023-04-13T10:50:07.074Z,835.00
2023-04-13T10:51:08.064Z,880.00
2023-04-13T10:52:08.071Z,854.00
2023-04-13T10:53:08.102Z,665.00
2023-04-13T10:54:07.074Z,629.00
2023-04-13T10:55:07.096Z,643.00
2023-04-13T10:56:07.044Z,588.00
2023-04-13T10:57:08.391Z,566.00
2023-04-13T10:58:08.062Z,577.00
2023-04-13T10:59:07.014Z,611.00
2023-04-13T11:00:07.054Z,599.00
2023-04-13T11:01:08.001Z,608.00
2023-04-13T11:02:08.061Z,611.00
2023-04-13T11:03:08.123Z,601.00
2023-04-13T11:04:12.329Z,598.00
2023-04-13T11:05:08.011Z,599.00
2023-04-13T11:06:06.984Z,607.00
2023-04-13T11:07:06.982Z,622.00
2023-04-13T11:08:06.954Z,631.00
2023-04-13T11:09:08.564Z,742.00
2023-04-13T11:10:07.967Z,819.00
2023-04-13T11:11:08.169Z,772.00
2023-04-13T11:12:07.934Z,766.00
2023-04-13T11:13:07.918Z,749.00
2023-04-13T11:14:07.928Z,758.00
2023-04-13T11:15:06.901Z,771.00
2023-04-13T11:16:06.905Z,774.00
2023-04-13T11:17:07.952Z,756.00
2023-04-13T11:18:07.942Z,760.00
2023-04-13T11:19:06.902Z,748.00
2023-04-13T11:20:07.909Z,721.00
2023-04-13T11:21:08.954Z,652.00
2023-04-13T11:23:07.848Z,709.00
2023-04-13T11:24:07.839Z,711.00
2023-04-13T11:25:07.852Z,748.00
2023-04-13T11:26:06.849Z,787.00
2023-04-13T11:27:08.205Z,847.00
2023-04-13T11:28:07.811Z,877.00
2023-04-13T11:29:07.811Z,903.00
2023-04-13T11:30:06.870Z,906.00
2023-04-13T11:31:06.796Z,926.00
2023-04-13T11:32:07.788Z,948.00
2023-04-13T11:33:07.815Z,969.00
2023-04-13T11:34:06.763Z,961.00
2023-04-13T11:35:06.765Z,967.00
2023-04-13T11:36:06.782Z,962.00
2023-04-13T11:37:08.234Z,978.00
2023-04-13T11:38:07.752Z,986.00
2023-04-13T11:39:08.412Z,982.00
2023-04-13T11:40:07.726Z,987.00
2023-04-13T11:41:16.623Z,1002.00
2023-04-13T11:42:07.739Z,1003.00
2023-04-13T11:43:07.705Z,1006.00
2023-04-13T11:44:07.707Z,1008.00
2023-04-13T11:45:07.685Z,1003.00
2023-04-13T11:46:06.748Z,1021.00
2023-04-13T11:47:07.679Z,1029.00
2023-04-13T11:48:07.694Z,1002.00
2023-04-13T11:49:07.645Z,997.00
2023-04-13T11:50:07.643Z,1004.00
2023-04-13T11:51:06.638Z,1000.00
2023-04-13T11:52:06.634Z,994.00
2023-04-13T11:53:07.653Z,985.00
2023-04-13T11:54:06.627Z,970.00
2023-04-13T11:55:18.873Z,986.00
2023-04-13T11:56:07.614Z,988.00
2023-04-13T11:57:07.589Z,992.00
2023-04-13T11:58:07.601Z,1003.00
2023-04-13T11:59:06.606Z,1013.00
2023-04-13T12:00:06.577Z,1048.00
2023-04-13T12:01:13.429Z,1033.00
2023-04-13T12:02:15.462Z,1035.00
2023-04-13T12:04:14.482Z,1037.00
2023-04-13T12:05:07.674Z,1038.00
2023-04-13T12:06:06.837Z,1049.00
2023-04-13T12:07:07.898Z,1066.00
2023-04-13T12:08:08.612Z,1086.00
2023-04-13T12:09:13.421Z,1108.00
2023-04-13T12:10:08.357Z,1037.00
2023-04-13T12:11:36.715Z,1038.00
2023-04-13T12:12:48.880Z,1038.00
2023-04-13T12:13:20.422Z,1039.00
2023-04-13T12:14:13.720Z,1040.00